sensor_id;sensor_type;location;lat;lon;timestamp;temperature;humidity
71155;DHT22;59375;53.216;5.728;2022-08-20T00:00:42;18.50;99.90
71155;DHT22;59375;53.216;5.728;2022-08-20T00:05:44;18.60;99.90
71155;DHT22;59375;53.216;5.728;2022-08-20T00:08:11;18.70;99.90
71155;DHT22;59375;53.216;5.728;2022-08-20T00:10:40;18.80;99.90
71155;DHT22;59375;53.216;5.728;2022-08-20T00:13:08;18.80;99.90
71155;DHT22;59375;53.216;5.728;2022-08-20T00:15:36;18.80;99.90
71155;DHT22;59375;53.216;5.728;2022-08-20T00:18:03;18.80;99.90
71155;DHT22;59375;53.216;5.728;2022-08-20T00:20:32;18.80;99.90
71155;DHT22;59375;53.216;5.728;2022-08-20T00:22:58;18.80;99.90
71155;DHT22;59375;53.216;5.728;2022-08-20T00:25:25;18.70;99.90
71155;DHT22;59375;53.216;5.728;2022-08-20T00:27:51;18.70;99.90
71155;DHT22;59375;53.216;5.728;2022-08-20T00:30:16;18.70;99.90
71155;DHT22;59375;53.216;5.728;2022-08-20T00:32:47;18.60;99.90
71155;DHT22;59375;53.216;5.728;2022-08-20T00:35:16;18.60;99.90
71155;DHT22;59375;53.216;5.728;2022-08-20T00:37:42;18.50;99.90
71155;DHT22;59375;53.216;5.728;2022-08-20T00:40:09;18.50;99.90
71155;DHT22;59375;53.216;5.728;2022-08-20T00:42:46;18.40;99.90
71155;DHT22;59375;53.216;5.728;2022-08-20T00:45:13;18.50;99.90
71155;DHT22;59375;53.216;5.728;2022-08-20T00:47:39;18.50;99.90
71155;DHT22;59375;53.216;5.728;2022-08-20T00:50:07;18.50;99.90
71155;DHT22;59375;53.216;5.728;2022-08-20T00:52:34;18.50;99.90
71155;DHT22;59375;53.216;5.728;2022-08-20T00:55:01;18.50;99.90
71155;DHT22;59375;53.216;5.728;2022-08-20T00:57:30;18.50;99.90
71155;DHT22;59375;53.216;5.728;2022-08-20T00:59:57;18.50;99.90
71155;DHT22;59375;53.216;5.728;2022-08-20T01:02:25;18.50;99.90
71155;DHT22;59375;53.216;5.728;2022-08-20T01:04:54;18.50;99.90
71155;DHT22;59375;53.216;5.728;2022-08-20T01:07:21;18.40;99.90
71155;DHT22;59375;53.216;5.728;2022-08-20T01:09:51;18.50;99.80
71155;DHT22;59375;53.216;5.728;2022-08-20T01:12:17;18.40;99.50
71155;DHT22;59375;53.216;5.728;2022-08-20T01:14:44;18.30;99.30
71155;DHT22;59375;53.216;5.728;2022-08-20T01:17:14;18.40;99.20
71155;DHT22;59375;53.216;5.728;2022-08-20T01:22:38;18.40;98.80
71155;DHT22;59375;53.216;5.728;2022-08-20T01:25:45;18.40;98.90
71155;DHT22;59375;53.216;5.728;2022-08-20T01:28:17;18.30;98.50
71155;DHT22;59375;53.216;5.728;2022-08-20T01:30:43;18.20;98.80
71155;DHT22;59375;53.216;5.728;2022-08-20T01:33:09;18.20;98.70
71155;DHT22;59375;53.216;5.728;2022-08-20T01:35:37;18.10;98.50
71155;DHT22;59375;53.216;5.728;2022-08-20T01:38:04;18.00;98.50
71155;DHT22;59375;53.216;5.728;2022-08-20T01:40:53;17.90;98.50
71155;DHT22;59375;53.216;5.728;2022-08-20T01:43:22;17.90;98.30
71155;DHT22;59375;53.216;5.728;2022-08-20T01:45:49;17.90;98.40
71155;DHT22;59375;53.216;5.728;2022-08-20T01:48:15;17.80;98.40
71155;DHT22;59375;53.216;5.728;2022-08-20T01:50:45;17.80;98.40
71155;DHT22;59375;53.216;5.728;2022-08-20T01:53:23;17.70;98.20
71155;DHT22;59375;53.216;5.728;2022-08-20T01:55:49;17.70;98.10
71155;DHT22;59375;53.216;5.728;2022-08-20T01:58:15;17.80;98.20
71155;DHT22;59375;53.216;5.728;2022-08-20T02:00:41;17.80;98.20
71155;DHT22;59375;53.216;5.728;2022-08-20T02:03:07;17.70;98.10
71155;DHT22;59375;53.216;5.728;2022-08-20T02:05:33;17.70;98.10
71155;DHT22;59375;53.216;5.728;2022-08-20T02:07:59;17.70;98.10
71155;DHT22;59375;53.216;5.728;2022-08-20T02:10:26;17.70;98.20
71155;DHT22;59375;53.216;5.728;2022-08-20T02:12:52;17.70;98.30
71155;DHT22;59375;53.216;5.728;2022-08-20T02:15:17;17.80;98.30
71155;DHT22;59375;53.216;5.728;2022-08-20T02:17:43;17.80;98.20
71155;DHT22;59375;53.216;5.728;2022-08-20T02:20:18;17.80;98.20
71155;DHT22;59375;53.216;5.728;2022-08-20T02:22:53;17.70;98.20
71155;DHT22;59375;53.216;5.728;2022-08-20T02:25:22;17.70;98.40
71155;DHT22;59375;53.216;5.728;2022-08-20T02:27:49;17.70;98.50
71155;DHT22;59375;53.216;5.728;2022-08-20T02:30:20;17.70;98.40
71155;DHT22;59375;53.216;5.728;2022-08-20T02:32:46;17.70;98.40
71155;DHT22;59375;53.216;5.728;2022-08-20T02:35:12;17.60;98.30
71155;DHT22;59375;53.216;5.728;2022-08-20T02:37:41;17.60;98.40
71155;DHT22;59375;53.216;5.728;2022-08-20T02:40:10;17.60;98.50
71155;DHT22;59375;53.216;5.728;2022-08-20T02:42:36;17.70;98.70
71155;DHT22;59375;53.216;5.728;2022-08-20T02:45:04;17.70;98.90
71155;DHT22;59375;53.216;5.728;2022-08-20T02:47:30;17.70;99.10
71155;DHT22;59375;53.216;5.728;2022-08-20T02:49:56;17.70;99.20
71155;DHT22;59375;53.216;5.728;2022-08-20T02:52:24;17.70;99.20
71155;DHT22;59375;53.216;5.728;2022-08-20T02:54:50;17.70;99.10
71155;DHT22;59375;53.216;5.728;2022-08-20T02:57:18;17.70;99.10
71155;DHT22;59375;53.216;5.728;2022-08-20T02:59:45;17.60;99.30
71155;DHT22;59375;53.216;5.728;2022-08-20T03:02:11;17.60;99.50
71155;DHT22;59375;53.216;5.728;2022-08-20T03:04:37;17.50;99.60
71155;DHT22;59375;53.216;5.728;2022-08-20T03:07:05;17.40;99.70
71155;DHT22;59375;53.216;5.728;2022-08-20T03:09:30;17.40;99.70
71155;DHT22;59375;53.216;5.728;2022-08-20T03:11:56;17.30;99.70
71155;DHT22;59375;53.216;5.728;2022-08-20T03:14:22;17.30;99.70
71155;DHT22;59375;53.216;5.728;2022-08-20T03:16:48;17.30;99.60
71155;DHT22;59375;53.216;5.728;2022-08-20T03:19:14;17.30;99.50
71155;DHT22;59375;53.216;5.728;2022-08-20T03:21:40;17.20;99.70
71155;DHT22;59375;53.216;5.728;2022-08-20T03:24:05;17.20;99.40
71155;DHT22;59375;53.216;5.728;2022-08-20T03:26:31;17.20;99.40
71155;DHT22;59375;53.216;5.728;2022-08-20T03:28:57;17.10;99.30
71155;DHT22;59375;53.216;5.728;2022-08-20T03:31:22;17.10;99.30
71155;DHT22;59375;53.216;5.728;2022-08-20T03:33:48;17.10;99.40
71155;DHT22;59375;53.216;5.728;2022-08-20T03:36:13;17.00;99.40
71155;DHT22;59375;53.216;5.728;2022-08-20T03:38:39;16.90;99.40
71155;DHT22;59375;53.216;5.728;2022-08-20T03:41:05;16.90;99.50
71155;DHT22;59375;53.216;5.728;2022-08-20T03:43:31;16.90;99.60
71155;DHT22;59375;53.216;5.728;2022-08-20T03:45:57;16.80;99.50
71155;DHT22;59375;53.216;5.728;2022-08-20T03:48:22;16.80;99.40
71155;DHT22;59375;53.216;5.728;2022-08-20T03:50:49;16.90;99.40
71155;DHT22;59375;53.216;5.728;2022-08-20T03:53:16;16.80;99.30
71155;DHT22;59375;53.216;5.728;2022-08-20T03:55:44;16.80;99.50
71155;DHT22;59375;53.216;5.728;2022-08-20T03:58:12;16.80;99.50
71155;DHT22;59375;53.216;5.728;2022-08-20T04:00:41;16.80;99.50
71155;DHT22;59375;53.216;5.728;2022-08-20T04:03:08;16.70;99.40
71155;DHT22;59375;53.216;5.728;2022-08-20T04:05:35;16.60;99.40
71155;DHT22;59375;53.216;5.728;2022-08-20T04:08:06;16.50;99.50
71155;DHT22;59375;53.216;5.728;2022-08-20T04:10:32;16.50;99.60
71155;DHT22;59375;53.216;5.728;2022-08-20T04:12:58;16.50;99.70
71155;DHT22;59375;53.216;5.728;2022-08-20T04:15:24;16.50;99.70
71155;DHT22;59375;53.216;5.728;2022-08-20T04:17:50;16.40;99.80
71155;DHT22;59375;53.216;5.728;2022-08-20T04:20:20;16.40;99.80
71155;DHT22;59375;53.216;5.728;2022-08-20T04:22:49;16.50;99.90
71155;DHT22;59375;53.216;5.728;2022-08-20T04:25:14;16.40;99.90
71155;DHT22;59375;53.216;5.728;2022-08-20T04:27:40;16.30;99.90
71155;DHT22;59375;53.216;5.728;2022-08-20T04:30:09;16.20;99.90
71155;DHT22;59375;53.216;5.728;2022-08-20T04:32:39;16.10;99.90
71155;DHT22;59375;53.216;5.728;2022-08-20T04:35:07;16.10;99.90
71155;DHT22;59375;53.216;5.728;2022-08-20T04:37:34;16.10;99.90
71155;DHT22;59375;53.216;5.728;2022-08-20T04:40:09;16.10;99.90
71155;DHT22;59375;53.216;5.728;2022-08-20T04:42:53;16.20;99.90
71155;DHT22;59375;53.216;5.728;2022-08-20T04:45:19;16.20;99.90
71155;DHT22;59375;53.216;5.728;2022-08-20T04:47:46;16.30;99.90
71155;DHT22;59375;53.216;5.728;2022-08-20T04:50:12;16.30;99.90
71155;DHT22;59375;53.216;5.728;2022-08-20T04:52:38;16.30;99.90
71155;DHT22;59375;53.216;5.728;2022-08-20T04:55:04;16.30;99.90
71155;DHT22;59375;53.216;5.728;2022-08-20T04:57:30;16.30;99.90
71155;DHT22;59375;53.216;5.728;2022-08-20T04:59:56;16.40;99.90
71155;DHT22;59375;53.216;5.728;2022-08-20T05:02:22;16.40;99.90
71155;DHT22;59375;53.216;5.728;2022-08-20T05:04:48;16.40;99.90
71155;DHT22;59375;53.216;5.728;2022-08-20T05:07:15;16.40;99.90
71155;DHT22;59375;53.216;5.728;2022-08-20T05:09:43;16.40;99.90
71155;DHT22;59375;53.216;5.728;2022-08-20T05:12:09;16.40;99.90
71155;DHT22;59375;53.216;5.728;2022-08-20T05:14:34;16.40;99.90
71155;DHT22;59375;53.216;5.728;2022-08-20T05:17:03;16.40;99.90
71155;DHT22;59375;53.216;5.728;2022-08-20T05:19:30;16.40;99.90
71155;DHT22;59375;53.216;5.728;2022-08-20T05:21:56;16.40;99.90
71155;DHT22;59375;53.216;5.728;2022-08-20T05:24:22;16.40;99.90
71155;DHT22;59375;53.216;5.728;2022-08-20T05:26:48;16.40;99.90
71155;DHT22;59375;53.216;5.728;2022-08-20T05:29:14;16.40;99.90
71155;DHT22;59375;53.216;5.728;2022-08-20T05:31:40;16.40;99.90
71155;DHT22;59375;53.216;5.728;2022-08-20T05:34:08;16.50;99.90
71155;DHT22;59375;53.216;5.728;2022-08-20T05:36:36;16.50;99.90
71155;DHT22;59375;53.216;5.728;2022-08-20T05:39:01;16.50;99.90
71155;DHT22;59375;53.216;5.728;2022-08-20T05:41:27;16.50;99.90
71155;DHT22;59375;53.216;5.728;2022-08-20T05:43:54;16.50;99.90
71155;DHT22;59375;53.216;5.728;2022-08-20T05:46:20;16.60;99.90
71155;DHT22;59375;53.216;5.728;2022-08-20T05:48:46;16.60;99.90
71155;DHT22;59375;53.216;5.728;2022-08-20T05:51:12;16.70;99.90
71155;DHT22;59375;53.216;5.728;2022-08-20T05:53:37;16.70;99.90
71155;DHT22;59375;53.216;5.728;2022-08-20T05:56:03;16.80;99.90
71155;DHT22;59375;53.216;5.728;2022-08-20T05:58:29;16.80;99.90
71155;DHT22;59375;53.216;5.728;2022-08-20T06:00:57;16.80;99.90
71155;DHT22;59375;53.216;5.728;2022-08-20T06:03:23;16.90;99.90
71155;DHT22;59375;53.216;5.728;2022-08-20T06:06:08;16.90;99.90
71155;DHT22;59375;53.216;5.728;2022-08-20T06:08:35;16.90;99.90
71155;DHT22;59375;53.216;5.728;2022-08-20T06:11:01;16.90;99.90
71155;DHT22;59375;53.216;5.728;2022-08-20T06:13:26;17.00;99.90
71155;DHT22;59375;53.216;5.728;2022-08-20T06:15:56;17.00;99.90
71155;DHT22;59375;53.216;5.728;2022-08-20T06:18:22;17.10;99.90
71155;DHT22;59375;53.216;5.728;2022-08-20T06:20:48;17.10;99.90
71155;DHT22;59375;53.216;5.728;2022-08-20T06:23:15;17.10;99.90
71155;DHT22;59375;53.216;5.728;2022-08-20T06:25:41;17.20;99.90
71155;DHT22;59375;53.216;5.728;2022-08-20T06:28:07;17.30;99.90
71155;DHT22;59375;53.216;5.728;2022-08-20T06:30:33;17.40;99.90
71155;DHT22;59375;53.216;5.728;2022-08-20T06:32:58;17.80;99.90
71155;DHT22;59375;53.216;5.728;2022-08-20T06:35:24;18.50;99.30
71155;DHT22;59375;53.216;5.728;2022-08-20T06:37:50;19.30;98.20
71155;DHT22;59375;53.216;5.728;2022-08-20T06:40:22;20.00;96.90
71155;DHT22;59375;53.216;5.728;2022-08-20T06:42:49;20.80;95.80
71155;DHT22;59375;53.216;5.728;2022-08-20T06:45:18;21.30;94.90
71155;DHT22;59375;53.216;5.728;2022-08-20T06:47:45;21.90;94.10
71155;DHT22;59375;53.216;5.728;2022-08-20T06:50:14;22.30;93.40
71155;DHT22;59375;53.216;5.728;2022-08-20T06:52:40;22.80;92.80
71155;DHT22;59375;53.216;5.728;2022-08-20T06:55:08;23.20;92.20
71155;DHT22;59375;53.216;5.728;2022-08-20T06:57:35;23.60;91.50
71155;DHT22;59375;53.216;5.728;2022-08-20T07:00:04;24.00;90.80
71155;DHT22;59375;53.216;5.728;2022-08-20T07:02:30;24.30;90.30
71155;DHT22;59375;53.216;5.728;2022-08-20T07:04:55;24.60;89.30
71155;DHT22;59375;53.216;5.728;2022-08-20T07:07:21;24.90;88.00
71155;DHT22;59375;53.216;5.728;2022-08-20T07:09:47;25.20;87.10
71155;DHT22;59375;53.216;5.728;2022-08-20T07:12:13;25.50;85.80
71155;DHT22;59375;53.216;5.728;2022-08-20T07:14:38;25.60;84.10
71155;DHT22;59375;53.216;5.728;2022-08-20T07:17:05;25.90;83.50
71155;DHT22;59375;53.216;5.728;2022-08-20T07:19:31;26.10;82.20
71155;DHT22;59375;53.216;5.728;2022-08-20T07:21:57;26.40;81.60
71155;DHT22;59375;53.216;5.728;2022-08-20T07:24:22;26.60;80.70
71155;DHT22;59375;53.216;5.728;2022-08-20T07:26:48;26.80;79.40
71155;DHT22;59375;53.216;5.728;2022-08-20T07:29:16;27.10;78.50
71155;DHT22;59375;53.216;5.728;2022-08-20T07:31:42;27.30;76.20
71155;DHT22;59375;53.216;5.728;2022-08-20T07:34:26;27.40;75.00
71155;DHT22;59375;53.216;5.728;2022-08-20T07:36:52;27.60;74.40
71155;DHT22;59375;53.216;5.728;2022-08-20T07:39:17;27.80;73.80
71155;DHT22;59375;53.216;5.728;2022-08-20T07:41:43;28.00;73.30
71155;DHT22;59375;53.216;5.728;2022-08-20T07:44:08;27.90;73.10
71155;DHT22;59375;53.216;5.728;2022-08-20T07:46:34;28.20;73.40
71155;DHT22;59375;53.216;5.728;2022-08-20T07:48:59;28.50;72.70
71155;DHT22;59375;53.216;5.728;2022-08-20T07:51:25;28.40;70.10
71155;DHT22;59375;53.216;5.728;2022-08-20T07:53:51;28.50;68.30
71155;DHT22;59375;53.216;5.728;2022-08-20T07:56:20;28.60;68.80
71155;DHT22;59375;53.216;5.728;2022-08-20T07:58:50;28.80;68.70
71155;DHT22;59375;53.216;5.728;2022-08-20T08:01:23;29.20;67.20
71155;DHT22;59375;53.216;5.728;2022-08-20T08:03:50;29.30;65.10
71155;DHT22;59375;53.216;5.728;2022-08-20T08:06:17;29.50;65.80
71155;DHT22;59375;53.216;5.728;2022-08-20T08:08:44;29.20;64.70
71155;DHT22;59375;53.216;5.728;2022-08-20T08:11:10;29.00;65.10
71155;DHT22;59375;53.216;5.728;2022-08-20T08:13:39;29.10;63.90
71155;DHT22;59375;53.216;5.728;2022-08-20T08:16:06;29.10;61.80
71155;DHT22;59375;53.216;5.728;2022-08-20T08:18:39;29.10;63.00
71155;DHT22;59375;53.216;5.728;2022-08-20T08:21:06;29.40;63.20
71155;DHT22;59375;53.216;5.728;2022-08-20T08:23:33;29.50;61.70
71155;DHT22;59375;53.216;5.728;2022-08-20T08:25:59;29.70;61.40
71155;DHT22;59375;53.216;5.728;2022-08-20T08:28:25;29.90;59.70
71155;DHT22;59375;53.216;5.728;2022-08-20T08:30:52;29.80;58.70
71155;DHT22;59375;53.216;5.728;2022-08-20T08:33:23;29.40;59.60
71155;DHT22;59375;53.216;5.728;2022-08-20T08:35:53;29.40;59.40
71155;DHT22;59375;53.216;5.728;2022-08-20T08:38:20;29.40;59.90
71155;DHT22;59375;53.216;5.728;2022-08-20T08:40:48;29.60;60.60
71155;DHT22;59375;53.216;5.728;2022-08-20T08:43:19;29.50;58.40
71155;DHT22;59375;53.216;5.728;2022-08-20T08:45:53;29.30;59.20
71155;DHT22;59375;53.216;5.728;2022-08-20T08:48:21;29.30;60.80
71155;DHT22;59375;53.216;5.728;2022-08-20T08:50:51;29.30;59.80
71155;DHT22;59375;53.216;5.728;2022-08-20T08:53:45;29.30;61.10
71155;DHT22;59375;53.216;5.728;2022-08-20T08:56:13;29.20;56.20
71155;DHT22;59375;53.216;5.728;2022-08-20T08:58:39;28.80;57.10
71155;DHT22;59375;53.216;5.728;2022-08-20T09:01:11;28.60;57.30
71155;DHT22;59375;53.216;5.728;2022-08-20T09:03:38;28.50;59.00
71155;DHT22;59375;53.216;5.728;2022-08-20T09:06:05;28.90;60.00
71155;DHT22;59375;53.216;5.728;2022-08-20T09:08:36;29.10;60.00
71155;DHT22;59375;53.216;5.728;2022-08-20T09:11:04;28.60;60.50
71155;DHT22;59375;53.216;5.728;2022-08-20T09:13:31;28.00;61.90
71155;DHT22;59375;53.216;5.728;2022-08-20T09:15:57;27.70;62.80
71155;DHT22;59375;53.216;5.728;2022-08-20T09:18:23;27.90;63.20
71155;DHT22;59375;53.216;5.728;2022-08-20T09:20:48;28.30;63.00
71155;DHT22;59375;53.216;5.728;2022-08-20T09:23:13;28.80;61.80
71155;DHT22;59375;53.216;5.728;2022-08-20T09:25:39;29.10;60.50
71155;DHT22;59375;53.216;5.728;2022-08-20T09:28:05;29.10;60.10
71155;DHT22;59375;53.216;5.728;2022-08-20T09:30:30;28.90;60.30
71155;DHT22;59375;53.216;5.728;2022-08-20T09:32:58;28.70;60.20
71155;DHT22;59375;53.216;5.728;2022-08-20T09:35:24;28.70;60.30
71155;DHT22;59375;53.216;5.728;2022-08-20T09:37:49;28.80;60.00
71155;DHT22;59375;53.216;5.728;2022-08-20T09:40:17;28.30;57.40
71155;DHT22;59375;53.216;5.728;2022-08-20T09:42:43;27.70;59.10
71155;DHT22;59375;53.216;5.728;2022-08-20T09:45:09;27.40;61.00
71155;DHT22;59375;53.216;5.728;2022-08-20T09:47:35;27.50;60.50
71155;DHT22;59375;53.216;5.728;2022-08-20T09:50:00;27.90;60.10
71155;DHT22;59375;53.216;5.728;2022-08-20T09:52:35;28.30;60.00
71155;DHT22;59375;53.216;5.728;2022-08-20T09:55:50;28.70;59.50
71155;DHT22;59375;53.216;5.728;2022-08-20T09:57:50;28.90;58.70
71155;DHT22;59375;53.216;5.728;2022-08-20T10:00:17;29.20;58.20
71155;DHT22;59375;53.216;5.728;2022-08-20T10:02:43;29.50;57.40
71155;DHT22;59375;53.216;5.728;2022-08-20T10:05:09;29.70;57.10
71155;DHT22;59375;53.216;5.728;2022-08-20T10:07:36;29.90;56.80
71155;DHT22;59375;53.216;5.728;2022-08-20T10:10:03;30.10;56.20
71155;DHT22;59375;53.216;5.728;2022-08-20T10:12:30;29.70;53.80
71155;DHT22;59375;53.216;5.728;2022-08-20T10:14:55;29.20;53.10
71155;DHT22;59375;53.216;5.728;2022-08-20T10:17:21;28.90;53.60
71155;DHT22;59375;53.216;5.728;2022-08-20T10:19:46;28.70;53.50
71155;DHT22;59375;53.216;5.728;2022-08-20T10:22:12;28.80;54.40
71155;DHT22;59375;53.216;5.728;2022-08-20T10:24:38;28.60;53.10
71155;DHT22;59375;53.216;5.728;2022-08-20T10:27:04;28.10;53.50
71155;DHT22;59375;53.216;5.728;2022-08-20T10:29:29;28.10;54.20
71155;DHT22;59375;53.216;5.728;2022-08-20T10:31:55;28.20;55.50
71155;DHT22;59375;53.216;5.728;2022-08-20T10:34:24;28.40;56.60
71155;DHT22;59375;53.216;5.728;2022-08-20T10:36:50;29.00;56.30
71155;DHT22;59375;53.216;5.728;2022-08-20T10:39:16;29.60;56.10
71155;DHT22;59375;53.216;5.728;2022-08-20T10:41:41;30.00;55.30
71155;DHT22;59375;53.216;5.728;2022-08-20T10:44:07;30.10;54.80
71155;DHT22;59375;53.216;5.728;2022-08-20T10:46:33;29.80;53.80
71155;DHT22;59375;53.216;5.728;2022-08-20T10:48:59;29.00;52.70
71155;DHT22;59375;53.216;5.728;2022-08-20T10:51:24;28.00;53.40
71155;DHT22;59375;53.216;5.728;2022-08-20T10:53:50;27.30;55.40
71155;DHT22;59375;53.216;5.728;2022-08-20T10:56:16;27.40;57.20
71155;DHT22;59375;53.216;5.728;2022-08-20T10:58:41;27.80;56.40
71155;DHT22;59375;53.216;5.728;2022-08-20T11:01:07;28.40;57.30
71155;DHT22;59375;53.216;5.728;2022-08-20T11:03:34;29.00;54.80
71155;DHT22;59375;53.216;5.728;2022-08-20T11:05:59;29.40;53.60
71155;DHT22;59375;53.216;5.728;2022-08-20T11:08:25;29.80;53.90
71155;DHT22;59375;53.216;5.728;2022-08-20T11:10:51;30.10;53.70
71155;DHT22;59375;53.216;5.728;2022-08-20T11:13:18;30.00;53.60
71155;DHT22;59375;53.216;5.728;2022-08-20T11:15:43;30.10;53.70
71155;DHT22;59375;53.216;5.728;2022-08-20T11:18:09;30.30;52.90
71155;DHT22;59375;53.216;5.728;2022-08-20T11:20:36;30.40;52.20
71155;DHT22;59375;53.216;5.728;2022-08-20T11:23:02;30.60;52.40
71155;DHT22;59375;53.216;5.728;2022-08-20T11:25:28;30.70;52.60
71155;DHT22;59375;53.216;5.728;2022-08-20T11:27:54;30.80;51.20
71155;DHT22;59375;53.216;5.728;2022-08-20T11:30:24;30.70;50.80
71155;DHT22;59375;53.216;5.728;2022-08-20T11:32:50;30.80;51.40
71155;DHT22;59375;53.216;5.728;2022-08-20T11:35:16;31.00;51.40
71155;DHT22;59375;53.216;5.728;2022-08-20T11:37:43;30.90;51.40
71155;DHT22;59375;53.216;5.728;2022-08-20T11:40:09;30.90;50.50
71155;DHT22;59375;53.216;5.728;2022-08-20T11:42:36;30.80;50.70
71155;DHT22;59375;53.216;5.728;2022-08-20T11:45:02;30.30;50.30
71155;DHT22;59375;53.216;5.728;2022-08-20T11:47:29;30.20;50.60
71155;DHT22;59375;53.216;5.728;2022-08-20T11:50:00;30.40;51.10
71155;DHT22;59375;53.216;5.728;2022-08-20T11:52:27;30.70;51.00
71155;DHT22;59375;53.216;5.728;2022-08-20T11:54:52;31.00;51.30
71155;DHT22;59375;53.216;5.728;2022-08-20T11:57:23;31.20;51.40
71155;DHT22;59375;53.216;5.728;2022-08-20T11:59:53;31.50;50.70
71155;DHT22;59375;53.216;5.728;2022-08-20T12:02:19;31.70;50.20
71155;DHT22;59375;53.216;5.728;2022-08-20T12:04:45;31.40;49.90
71155;DHT22;59375;53.216;5.728;2022-08-20T12:07:14;30.90;49.30
71155;DHT22;59375;53.216;5.728;2022-08-20T12:09:40;30.10;49.90
71155;DHT22;59375;53.216;5.728;2022-08-20T12:12:07;29.70;50.90
71155;DHT22;59375;53.216;5.728;2022-08-20T12:14:32;29.50;50.30
71155;DHT22;59375;53.216;5.728;2022-08-20T12:17:17;29.30;50.30
71155;DHT22;59375;53.216;5.728;2022-08-20T12:19:44;29.00;50.80
71155;DHT22;59375;53.216;5.728;2022-08-20T12:22:10;28.60;52.60
71155;DHT22;59375;53.216;5.728;2022-08-20T12:24:36;28.40;54.30
71155;DHT22;59375;53.216;5.728;2022-08-20T12:27:16;28.20;53.50
71155;DHT22;59375;53.216;5.728;2022-08-20T12:29:44;28.00;52.00
71155;DHT22;59375;53.216;5.728;2022-08-20T12:32:10;27.90;52.60
71155;DHT22;59375;53.216;5.728;2022-08-20T12:34:39;27.80;53.10
71155;DHT22;59375;53.216;5.728;2022-08-20T12:37:11;27.70;53.20
71155;DHT22;59375;53.216;5.728;2022-08-20T12:39:39;27.50;53.60
71155;DHT22;59375;53.216;5.728;2022-08-20T12:42:06;27.50;54.00
71155;DHT22;59375;53.216;5.728;2022-08-20T12:44:33;27.80;53.80
71155;DHT22;59375;53.216;5.728;2022-08-20T12:47:13;28.00;51.90
71155;DHT22;59375;53.216;5.728;2022-08-20T12:49:42;27.90;51.20
71155;DHT22;59375;53.216;5.728;2022-08-20T12:52:08;27.70;50.40
71155;DHT22;59375;53.216;5.728;2022-08-20T12:54:34;27.40;51.70
71155;DHT22;59375;53.216;5.728;2022-08-20T12:57:00;27.30;52.30
71155;DHT22;59375;53.216;5.728;2022-08-20T12:59:26;27.60;53.20
71155;DHT22;59375;53.216;5.728;2022-08-20T13:01:53;28.00;52.80
71155;DHT22;59375;53.216;5.728;2022-08-20T13:04:19;28.40;52.00
71155;DHT22;59375;53.216;5.728;2022-08-20T13:06:45;28.60;51.70
71155;DHT22;59375;53.216;5.728;2022-08-20T13:09:11;28.70;52.30
71155;DHT22;59375;53.216;5.728;2022-08-20T13:11:36;28.90;51.20
71155;DHT22;59375;53.216;5.728;2022-08-20T13:14:02;29.10;51.90
71155;DHT22;59375;53.216;5.728;2022-08-20T13:16:28;29.20;52.40
71155;DHT22;59375;53.216;5.728;2022-08-20T13:18:53;29.30;52.30
71155;DHT22;59375;53.216;5.728;2022-08-20T13:21:19;29.30;51.30
71155;DHT22;59375;53.216;5.728;2022-08-20T13:23:44;29.30;51.70
71155;DHT22;59375;53.216;5.728;2022-08-20T13:26:10;29.30;51.30
71155;DHT22;59375;53.216;5.728;2022-08-20T13:28:35;29.30;51.40
71155;DHT22;59375;53.216;5.728;2022-08-20T13:31:01;29.20;52.00
71155;DHT22;59375;53.216;5.728;2022-08-20T13:33:27;29.10;52.00
71155;DHT22;59375;53.216;5.728;2022-08-20T13:35:53;29.20;52.80
71155;DHT22;59375;53.216;5.728;2022-08-20T13:38:19;29.20;53.00
71155;DHT22;59375;53.216;5.728;2022-08-20T13:40:45;29.10;53.50
71155;DHT22;59375;53.216;5.728;2022-08-20T13:43:10;28.90;54.10
71155;DHT22;59375;53.216;5.728;2022-08-20T13:45:36;28.70;54.10
71155;DHT22;59375;53.216;5.728;2022-08-20T13:48:03;28.50;53.90
71155;DHT22;59375;53.216;5.728;2022-08-20T13:50:29;28.30;53.90
71155;DHT22;59375;53.216;5.728;2022-08-20T13:52:55;28.10;54.20
71155;DHT22;59375;53.216;5.728;2022-08-20T13:55:23;27.80;54.80
71155;DHT22;59375;53.216;5.728;2022-08-20T13:57:49;27.70;56.70
71155;DHT22;59375;53.216;5.728;2022-08-20T14:00:27;27.60;56.70
71155;DHT22;59375;53.216;5.728;2022-08-20T14:02:54;27.50;56.10
71155;DHT22;59375;53.216;5.728;2022-08-20T14:05:20;27.30;54.90
71155;DHT22;59375;53.216;5.728;2022-08-20T14:07:47;27.10;56.70
71155;DHT22;59375;53.216;5.728;2022-08-20T14:10:16;27.00;57.50
71155;DHT22;59375;53.216;5.728;2022-08-20T14:12:42;26.80;57.50
71155;DHT22;59375;53.216;5.728;2022-08-20T14:15:09;26.70;58.00
71155;DHT22;59375;53.216;5.728;2022-08-20T14:17:40;26.60;58.70
71155;DHT22;59375;53.216;5.728;2022-08-20T14:20:12;26.60;58.40
71155;DHT22;59375;53.216;5.728;2022-08-20T14:22:39;26.60;57.40
71155;DHT22;59375;53.216;5.728;2022-08-20T14:25:07;26.60;56.80
71155;DHT22;59375;53.216;5.728;2022-08-20T14:27:33;26.50;56.20
71155;DHT22;59375;53.216;5.728;2022-08-20T14:29:58;26.40;56.40
71155;DHT22;59375;53.216;5.728;2022-08-20T14:32:25;26.50;57.20
71155;DHT22;59375;53.216;5.728;2022-08-20T14:34:51;26.50;57.80
71155;DHT22;59375;53.216;5.728;2022-08-20T14:37:19;26.60;58.40
71155;DHT22;59375;53.216;5.728;2022-08-20T14:39:47;26.80;58.30
71155;DHT22;59375;53.216;5.728;2022-08-20T14:42:13;26.80;57.50
71155;DHT22;59375;53.216;5.728;2022-08-20T14:44:39;26.90;57.50
71155;DHT22;59375;53.216;5.728;2022-08-20T14:47:17;26.80;57.80
71155;DHT22;59375;53.216;5.728;2022-08-20T14:49:44;26.60;58.10
71155;DHT22;59375;53.216;5.728;2022-08-20T14:52:12;26.60;59.30
71155;DHT22;59375;53.216;5.728;2022-08-20T14:54:38;26.70;59.40
71155;DHT22;59375;53.216;5.728;2022-08-20T14:57:04;26.80;59.70
71155;DHT22;59375;53.216;5.728;2022-08-20T14:59:31;26.60;59.40
71155;DHT22;59375;53.216;5.728;2022-08-20T15:01:57;26.60;59.80
71155;DHT22;59375;53.216;5.728;2022-08-20T15:04:24;26.60;60.20
71155;DHT22;59375;53.216;5.728;2022-08-20T15:06:49;26.60;62.20
71155;DHT22;59375;53.216;5.728;2022-08-20T15:09:15;26.60;61.50
71155;DHT22;59375;53.216;5.728;2022-08-20T15:11:40;26.40;61.20
71155;DHT22;59375;53.216;5.728;2022-08-20T15:14:06;26.40;61.70
71155;DHT22;59375;53.216;5.728;2022-08-20T15:16:32;26.40;61.50
71155;DHT22;59375;53.216;5.728;2022-08-20T15:18:58;26.40;61.60
71155;DHT22;59375;53.216;5.728;2022-08-20T15:21:24;26.50;62.80
71155;DHT22;59375;53.216;5.728;2022-08-20T15:23:50;26.50;61.70
71155;DHT22;59375;53.216;5.728;2022-08-20T15:26:16;26.40;62.20
71155;DHT22;59375;53.216;5.728;2022-08-20T15:28:41;26.40;63.10
71155;DHT22;59375;53.216;5.728;2022-08-20T15:31:08;26.20;64.00
71155;DHT22;59375;53.216;5.728;2022-08-20T15:33:34;25.80;64.80
71155;DHT22;59375;53.216;5.728;2022-08-20T15:36:00;25.40;66.30